Wales Center, NY

4:23 AM EDT on April 01, 2015 (GMT -0400)
Historic Village of East Aurora | | Change Station
CLOSE
Current Station
Personal Weather Station
Location: East Aurora, NY
Elevation: 919 ft
Nearby Weather Stations

Elev 919 ft 42.77 °N, 78.63 °W | Updated 1 minute ago

Mostly Cloudy
Mostly Cloudy
26.6 °F
Feels Like 27 °F
N
0.0
Wind Variable Wind from WSW

Today
High -- | Low -- °F
--% Chance of Precip.
Yesterday
High -- | Low -- °F
Precip. -- in
6:56 AM 7:39 PM
Waxing Gibbous, 91% visible
Pressure 30.01 in
Visibility 7.0 miles
Clouds Few 4000 ft
Mostly Cloudy 9000 ft
Mostly Cloudy 20000 ft
Windchill 27 °F
Dew Point 25 °F
Humidity 93%
Rainfall 0.00 in
Snow Depth Not available.
UV 0 out of 12
Pollen .70 out of 12
Air Quality Not available.
Flu Activity Not available.
METAR KBUF 010754Z 25003KT 7SM FEW040 BKN090 BKN200 M02/M04 A2999 RMK AO2 SLP162 T10221044

More Conditions Fewer Conditions

Pressure 30.01 in
Visibility 7.0 miles
Clouds Few 4000 ft
Mostly Cloudy 9000 ft
Mostly Cloudy 20000 ft
Windchill 27 °F
Dew Point 25 °F
Humidity 93%
Rainfall 0.00 in
Snow Depth Not available.
UV 0 out of 12
Pollen .70 out of 12
Air Quality Not available.
Flu Activity Not available.
METAR KBUF 010754Z 25003KT 7SM FEW040 BKN090 BKN200 M02/M04 A2999 RMK AO2 SLP162 T10221044

More Conditions Fewer Conditions

10-Day Weather Forecast

Almanac

Astronomy

Apr. 01, 2015 Rise Set
Actual Time
Civil Twilight
Nautical Twilight
Astronomical Twilight
Moon
Length of Visible Light
Length of Day
Tomorrow will be .
, % of the Moon is Illuminated

Today's Extremes

State Highs State Lows

Community

WunderPhotos

Upload Photos

1,809,932 photos uploaded!

WunderBlogs® & News

Nearby

Air Quality

  Air Quality AQ Index Pollutant
Not available.

Snow Depth

Station Depth Elevation

Earthquake Activity

City Distance Mag. Time & Date
Minimum magnitude displayed is 2.5.

Coastal Water Temperatures

Place Temperature

Stations

Nearby Weather Stations

Station Location Temp. Windchill Dew Point Humidity Wind Precip. Elev Updated Type